createdAt,value
2023-05-09T00:02:12.345Z,13.11
2023-05-09T00:04:39.433Z,13.10
2023-05-09T00:07:07.540Z,13.07
2023-05-09T00:09:34.594Z,13.01
2023-05-09T00:12:02.762Z,13.00
2023-05-09T00:14:29.942Z,12.97
2023-05-09T00:16:59.485Z,12.96
2023-05-09T00:19:26.637Z,12.95
2023-05-09T00:21:54.286Z,12.96
2023-05-09T00:24:21.671Z,12.95
2023-05-09T00:26:49.042Z,12.96
2023-05-09T00:29:16.157Z,12.96
2023-05-09T00:31:43.245Z,12.94
2023-05-09T00:34:10.497Z,12.95
2023-05-09T00:36:37.619Z,12.98
2023-05-09T00:39:05.802Z,13.00
2023-05-09T00:41:32.876Z,13.01
2023-05-09T00:44:00.201Z,13.02
2023-05-09T00:46:27.230Z,12.97
2023-05-09T00:48:54.281Z,12.93
2023-05-09T00:51:21.922Z,12.95
2023-05-09T00:53:49.398Z,12.96
2023-05-09T00:56:16.653Z,12.94
2023-05-09T00:58:43.963Z,12.89
2023-05-09T01:01:11.797Z,12.86
2023-05-09T01:03:39.794Z,12.88
2023-05-09T01:06:08.586Z,12.91
2023-05-09T01:08:45.573Z,12.94
2023-05-09T01:11:29.488Z,12.98
2023-05-09T01:14:19.194Z,12.98
2023-05-09T01:16:55.236Z,13.00
2023-05-09T01:19:46.136Z,13.02
2023-05-09T01:22:13.729Z,13.09
2023-05-09T01:24:48.336Z,13.11
2023-05-09T01:27:22.811Z,13.13
2023-05-09T01:29:57.289Z,13.12
2023-05-09T01:32:28.393Z,13.11
2023-05-09T01:34:56.372Z,13.14
2023-05-09T01:37:25.493Z,13.17
2023-05-09T01:39:53.622Z,13.20
2023-05-09T01:42:20.855Z,13.17
2023-05-09T01:44:48.316Z,13.16
2023-05-09T01:47:16.722Z,13.14
2023-05-09T01:49:43.978Z,13.13
2023-05-09T01:52:13.706Z,13.09
2023-05-09T01:54:40.783Z,13.07
2023-05-09T01:57:08.037Z,13.08
2023-05-09T01:59:35.394Z,13.09
2023-05-09T02:02:03.493Z,13.11
2023-05-09T02:04:30.748Z,13.11
2023-05-09T02:06:57.773Z,13.13
2023-05-09T02:09:24.802Z,13.13
2023-05-09T02:11:52.035Z,13.15
2023-05-09T02:14:19.972Z,13.14
2023-05-09T02:16:47.047Z,13.12
2023-05-09T02:19:14.067Z,13.13
2023-05-09T02:21:41.375Z,13.10
2023-05-09T02:24:08.684Z,13.06
2023-05-09T02:26:35.997Z,13.09
2023-05-09T02:29:03.833Z,13.09
2023-05-09T02:31:30.827Z,13.08
2023-05-09T02:33:59.412Z,13.05
2023-05-09T02:36:26.854Z,13.00
2023-05-09T02:38:53.872Z,13.05
2023-05-09T02:41:21.975Z,13.08
2023-05-09T02:43:48.981Z,13.10
2023-05-09T02:46:16.414Z,13.12
2023-05-09T02:48:43.659Z,13.14
2023-05-09T02:51:10.735Z,13.12
2023-05-09T02:53:37.759Z,13.14
2023-05-09T02:56:05.097Z,13.15
2023-05-09T02:58:32.164Z,13.15
2023-05-09T03:00:59.304Z,13.15
2023-05-09T03:03:26.405Z,13.17
2023-05-09T03:05:53.724Z,13.19
2023-05-09T03:08:20.722Z,13.19
2023-05-09T03:10:47.950Z,13.20
2023-05-09T03:13:15.824Z,13.23
2023-05-09T03:15:43.157Z,13.26
2023-05-09T03:18:12.543Z,13.31
2023-05-09T03:20:40.402Z,13.36
2023-05-09T03:23:07.457Z,13.36
2023-05-09T03:25:34.870Z,13.43
2023-05-09T03:28:01.963Z,13.47
2023-05-09T03:30:29.708Z,13.48
2023-05-09T03:32:56.911Z,13.31
2023-05-09T03:35:23.998Z,13.22
2023-05-09T03:37:51.340Z,13.66
2023-05-09T03:40:18.581Z,13.74
2023-05-09T03:42:53.187Z,13.81
2023-05-09T03:45:20.558Z,13.82
2023-05-09T03:47:47.715Z,13.83
2023-05-09T03:50:15.704Z,13.87
2023-05-09T03:52:43.449Z,13.88
2023-05-09T03:55:11.289Z,13.81
2023-05-09T03:57:39.059Z,13.79
2023-05-09T04:00:08.179Z,13.74
2023-05-09T04:02:42.398Z,13.76
2023-05-09T04:05:13.677Z,13.78
2023-05-09T04:07:41.305Z,13.82
2023-05-09T04:10:09.592Z,13.87
2023-05-09T04:12:36.614Z,13.89
2023-05-09T04:15:04.126Z,13.97
2023-05-09T04:17:31.600Z,14.04
2023-05-09T04:19:58.721Z,14.12
2023-05-09T04:22:25.943Z,14.19
2023-05-09T04:24:53.667Z,14.29
2023-05-09T04:27:21.139Z,14.44
2023-05-09T04:29:49.494Z,14.52
2023-05-09T04:32:16.663Z,14.62
2023-05-09T04:34:43.829Z,14.70
2023-05-09T04:37:15.634Z,14.82
2023-05-09T04:39:43.660Z,14.89
2023-05-09T04:42:18.387Z,14.96
2023-05-09T04:44:45.515Z,15.06
2023-05-09T04:47:12.956Z,15.15
2023-05-09T04:49:40.412Z,15.26
2023-05-09T04:52:08.687Z,15.34
2023-05-09T04:54:36.180Z,15.48
2023-05-09T04:57:17.269Z,15.57
2023-05-09T04:59:46.400Z,15.63
2023-05-09T05:02:14.358Z,15.65
2023-05-09T05:04:41.962Z,15.74
2023-05-09T05:07:09.255Z,15.82
2023-05-09T05:09:36.366Z,15.94
2023-05-09T05:12:09.267Z,15.98
2023-05-09T05:14:37.806Z,16.01
2023-05-09T05:17:05.609Z,16.02
2023-05-09T05:19:32.925Z,16.00
2023-05-09T05:22:01.136Z,16.01
2023-05-09T05:24:29.483Z,16.04
2023-05-09T05:26:57.189Z,16.05
2023-05-09T05:29:25.924Z,16.02
2023-05-09T05:31:53.067Z,16.05
2023-05-09T05:34:21.167Z,16.09
2023-05-09T05:36:48.512Z,16.14
2023-05-09T05:39:16.305Z,16.21
2023-05-09T05:41:43.281Z,16.28
2023-05-09T05:44:10.585Z,16.32
2023-05-09T05:46:38.265Z,16.35
2023-05-09T05:49:05.520Z,16.40
2023-05-09T05:51:33.901Z,16.49
2023-05-09T05:54:01.277Z,16.64
2023-05-09T05:56:28.432Z,16.76
2023-05-09T06:02:22.157Z,16.11
2023-05-09T06:04:49.542Z,17.13
2023-05-09T06:07:16.446Z,15.73
2023-05-09T06:09:43.458Z,15.53
2023-05-09T06:12:11.466Z,15.38
2023-05-09T06:14:38.681Z,15.78
2023-05-09T06:17:06.079Z,17.22
2023-05-09T06:19:33.039Z,17.48
2023-05-09T06:21:59.881Z,17.56
2023-05-09T06:24:35.915Z,17.50
2023-05-09T06:27:03.990Z,17.32
2023-05-09T06:29:31.967Z,17.02
2023-05-09T06:31:58.743Z,17.53
2023-05-09T06:34:25.939Z,17.37
2023-05-09T06:36:52.937Z,17.18
2023-05-09T06:39:19.805Z,17.31
2023-05-09T06:41:47.035Z,17.40
2023-05-09T06:44:19.918Z,17.50
2023-05-09T06:46:46.839Z,17.57
2023-05-09T06:49:13.807Z,17.69
2023-05-09T06:51:40.667Z,17.75
2023-05-09T06:54:07.636Z,18.33
2023-05-09T06:56:34.814Z,18.66
2023-05-09T06:59:01.731Z,18.73
2023-05-09T07:01:29.091Z,18.84
2023-05-09T07:03:56.172Z,18.96
2023-05-09T07:06:23.287Z,19.04
2023-05-09T07:08:50.107Z,19.09
2023-05-09T07:11:17.639Z,19.10
2023-05-09T07:13:44.432Z,19.25
2023-05-09T07:16:11.531Z,19.36
2023-05-09T07:18:39.778Z,19.45
2023-05-09T07:21:07.081Z,19.53
2023-05-09T07:23:34.772Z,19.58
2023-05-09T07:26:01.791Z,19.39
2023-05-09T07:28:29.139Z,19.59
2023-05-09T07:30:56.565Z,19.65
2023-05-09T07:33:23.850Z,19.66
2023-05-09T07:35:52.429Z,19.64
2023-05-09T07:38:19.170Z,19.78
2023-05-09T07:40:46.312Z,19.87
2023-05-09T07:43:13.753Z,19.92
2023-05-09T07:45:41.952Z,19.90
2023-05-09T07:48:09.138Z,20.00
2023-05-09T07:50:36.362Z,20.12
2023-05-09T07:53:03.417Z,20.22
2023-05-09T07:55:30.434Z,20.34
2023-05-09T07:57:57.532Z,20.52
2023-05-09T08:00:24.456Z,20.60
2023-05-09T08:02:51.984Z,20.62
2023-05-09T08:05:19.825Z,20.53
2023-05-09T08:07:46.753Z,20.50
2023-05-09T08:10:13.634Z,20.54
2023-05-09T08:12:40.805Z,20.77
2023-05-09T08:15:08.294Z,20.98
2023-05-09T08:17:35.578Z,21.02
2023-05-09T08:20:05.037Z,21.04
2023-05-09T08:22:32.312Z,21.08
2023-05-09T08:24:59.239Z,21.17
2023-05-09T08:27:26.056Z,21.37
2023-05-09T08:29:53.929Z,21.36
2023-05-09T08:32:22.409Z,21.26
2023-05-09T08:34:49.152Z,21.18
2023-05-09T08:37:16.266Z,21.15
2023-05-09T08:39:43.351Z,21.14
2023-05-09T08:42:10.631Z,21.24
2023-05-09T08:44:37.916Z,21.32
2023-05-09T08:47:05.279Z,21.38
2023-05-09T08:49:32.966Z,21.44
2023-05-09T08:51:59.720Z,21.47
2023-05-09T08:54:26.796Z,21.43
2023-05-09T08:56:53.608Z,21.42
2023-05-09T08:59:23.487Z,21.48
2023-05-09T09:01:50.635Z,21.59
2023-05-09T09:04:17.460Z,21.10
2023-05-09T09:06:44.367Z,21.42
2023-05-09T09:09:11.752Z,20.96
2023-05-09T09:11:38.891Z,21.04
2023-05-09T09:14:12.544Z,20.84
2023-05-09T09:16:43.801Z,20.91
2023-05-09T09:19:13.404Z,20.92
2023-05-09T09:21:41.986Z,20.23
2023-05-09T09:24:09.268Z,20.90
2023-05-09T09:26:45.001Z,21.13
2023-05-09T09:29:12.843Z,20.66
2023-05-09T09:31:40.539Z,21.06
2023-05-09T09:34:07.323Z,21.28
2023-05-09T09:36:36.200Z,20.91
2023-05-09T09:39:04.238Z,21.43
2023-05-09T09:41:36.663Z,21.66
2023-05-09T09:44:07.822Z,21.77
2023-05-09T09:46:47.154Z,21.46
2023-05-09T09:49:15.556Z,21.23
2023-05-09T09:51:42.954Z,21.20
2023-05-09T09:54:11.036Z,20.59
2023-05-09T09:56:42.055Z,21.27
2023-05-09T09:59:10.770Z,22.27
2023-05-09T10:02:12.332Z,22.31
2023-05-09T10:04:43.459Z,22.09
2023-05-09T10:07:12.822Z,20.43
2023-05-09T10:09:43.230Z,19.91
2023-05-09T10:12:10.439Z,19.96
2023-05-09T10:14:37.986Z,19.90
2023-05-09T10:17:05.546Z,20.00
2023-05-09T10:19:32.722Z,20.41
2023-05-09T10:22:06.362Z,20.45
2023-05-09T10:24:42.101Z,20.43
2023-05-09T10:27:10.611Z,20.66
2023-05-09T10:29:40.932Z,20.96
2023-05-09T10:32:12.891Z,20.76
2023-05-09T10:34:40.612Z,21.67
2023-05-09T10:37:08.017Z,22.30
2023-05-09T10:39:36.092Z,22.18
2023-05-09T10:42:03.266Z,20.88
2023-05-09T10:44:30.215Z,20.01
2023-05-09T10:46:57.509Z,20.07
2023-05-09T10:49:24.341Z,21.08
2023-05-09T10:51:51.678Z,21.55
2023-05-09T10:54:30.743Z,22.47
2023-05-09T10:56:58.009Z,22.84
2023-05-09T10:59:46.032Z,22.99
2023-05-09T11:02:14.177Z,22.95
2023-05-09T11:04:41.001Z,22.89
2023-05-09T11:07:29.657Z,22.86
2023-05-09T11:10:10.047Z,21.96
2023-05-09T11:12:59.210Z,20.81
2023-05-09T11:15:29.561Z,20.54
2023-05-09T11:18:12.022Z,20.48
2023-05-09T11:20:42.580Z,21.11
2023-05-09T11:23:11.318Z,20.61
2023-05-09T11:25:41.169Z,20.36
2023-05-09T11:28:08.265Z,20.65
2023-05-09T11:30:43.256Z,20.43
2023-05-09T11:33:33.008Z,20.76
2023-05-09T11:36:19.666Z,20.94
2023-05-09T11:38:47.023Z,22.48
2023-05-09T11:41:14.271Z,22.66
2023-05-09T11:43:42.149Z,22.70
2023-05-09T11:46:09.563Z,22.74
2023-05-09T11:48:40.397Z,22.82
2023-05-09T11:51:07.481Z,22.97
2023-05-09T11:53:35.725Z,23.08
2023-05-09T11:56:04.044Z,23.17
2023-05-09T11:58:31.532Z,23.22
2023-05-09T12:00:58.333Z,23.23
2023-05-09T12:03:25.850Z,23.29
2023-05-09T12:05:53.988Z,23.32
2023-05-09T12:08:22.253Z,23.36
2023-05-09T12:10:49.193Z,23.38
2023-05-09T12:13:19.111Z,23.37
2023-05-09T12:15:46.195Z,23.44
2023-05-09T12:18:13.987Z,23.54
2023-05-09T12:20:46.875Z,23.64
2023-05-09T12:23:13.973Z,23.65
2023-05-09T12:26:01.047Z,23.65
2023-05-09T12:29:32.977Z,23.64
2023-05-09T12:32:00.551Z,23.67
2023-05-09T12:34:27.497Z,23.63
2023-05-09T12:36:54.525Z,23.67
2023-05-09T12:39:22.504Z,23.73
2023-05-09T12:42:00.573Z,23.81
2023-05-09T12:44:30.019Z,23.83
2023-05-09T12:46:59.069Z,23.74
2023-05-09T12:49:26.382Z,23.64
2023-05-09T12:51:54.397Z,23.62
2023-05-09T12:54:22.828Z,23.57
2023-05-09T12:56:53.481Z,23.50
2023-05-09T12:59:24.287Z,23.45
2023-05-09T13:02:01.241Z,23.38
2023-05-09T13:04:28.340Z,23.45
2023-05-09T13:06:57.000Z,23.59
2023-05-09T13:09:24.493Z,23.66
2023-05-09T13:12:23.919Z,23.68
2023-05-09T13:14:51.291Z,23.63
2023-05-09T13:17:18.251Z,23.45
2023-05-09T13:19:45.225Z,23.31
2023-05-09T13:22:12.542Z,23.14
2023-05-09T13:24:39.474Z,23.02
2023-05-09T13:27:06.647Z,22.92
2023-05-09T13:29:33.936Z,22.88
2023-05-09T13:32:00.812Z,22.80
2023-05-09T13:34:28.270Z,22.68
2023-05-09T13:36:55.413Z,22.62
2023-05-09T13:39:22.245Z,22.49
2023-05-09T13:41:52.424Z,22.38
2023-05-09T13:44:19.641Z,22.32
2023-05-09T13:46:46.624Z,22.20
2023-05-09T13:49:13.563Z,22.13
2023-05-09T13:51:40.930Z,22.08
2023-05-09T13:54:12.137Z,22.00
2023-05-09T13:56:39.495Z,21.95
2023-05-09T13:59:06.568Z,21.91
2023-05-09T14:01:33.699Z,21.91
2023-05-09T14:04:00.935Z,21.95
2023-05-09T14:06:30.898Z,21.90
2023-05-09T14:08:57.866Z,21.91
2023-05-09T14:11:25.529Z,21.87
2023-05-09T14:13:52.515Z,21.88
2023-05-09T14:16:20.569Z,21.89
2023-05-09T14:18:48.109Z,21.92
2023-05-09T14:21:15.132Z,22.00
2023-05-09T14:23:42.857Z,22.08
2023-05-09T14:26:09.888Z,22.10
2023-05-09T14:28:37.700Z,22.10
2023-05-09T14:31:04.747Z,22.05
2023-05-09T14:33:32.385Z,22.08
2023-05-09T14:36:02.148Z,22.11
2023-05-09T14:38:29.198Z,22.09
2023-05-09T14:40:56.272Z,22.10
2023-05-09T14:43:23.789Z,22.07
2023-05-09T14:45:51.090Z,21.99
2023-05-09T14:48:18.293Z,21.99
2023-05-09T14:50:45.196Z,22.02
2023-05-09T14:53:12.365Z,22.08
2023-05-09T14:55:41.231Z,22.08
2023-05-09T14:58:08.487Z,22.03
2023-05-09T15:00:36.283Z,22.01
2023-05-09T15:03:03.855Z,22.03
2023-05-09T15:05:31.250Z,21.96
2023-05-09T15:07:58.528Z,21.96
2023-05-09T15:10:27.143Z,21.93
2023-05-09T15:12:54.733Z,21.98
2023-05-09T15:15:25.335Z,22.01
2023-05-09T15:17:52.671Z,21.95
2023-05-09T15:20:20.048Z,21.86
2023-05-09T15:22:47.161Z,21.83
2023-05-09T15:25:14.406Z,21.76
2023-05-09T15:27:41.588Z,21.71
2023-05-09T15:30:09.540Z,21.81
2023-05-09T15:32:37.965Z,21.97
2023-05-09T15:35:05.690Z,22.10
2023-05-09T15:37:35.602Z,22.03
2023-05-09T15:40:03.456Z,21.98
2023-05-09T15:42:31.295Z,21.80
2023-05-09T15:44:58.393Z,21.70
2023-05-09T15:47:25.511Z,21.64
2023-05-09T15:49:52.898Z,21.57
2023-05-09T15:52:19.840Z,21.51
2023-05-09T15:54:46.846Z,21.48
2023-05-09T15:57:14.380Z,21.47
2023-05-09T15:59:41.255Z,21.38
2023-05-09T16:02:08.630Z,21.33
2023-05-09T16:04:36.169Z,21.34
2023-05-09T16:07:03.229Z,21.27
2023-05-09T16:09:30.370Z,21.11
2023-05-09T16:11:57.257Z,20.97
2023-05-09T16:14:24.348Z,20.85
2023-05-09T16:16:53.134Z,20.80
2023-05-09T16:19:21.182Z,20.75
2023-05-09T16:21:48.205Z,20.62
2023-05-09T16:24:15.462Z,20.49
2023-05-09T16:26:42.513Z,20.41
2023-05-09T16:29:09.537Z,20.36
2023-05-09T16:31:36.625Z,20.30
2023-05-09T16:34:03.861Z,20.26
2023-05-09T16:36:32.218Z,20.17
2023-05-09T16:38:59.174Z,20.18
2023-05-09T16:41:26.588Z,20.14
2023-05-09T16:43:53.480Z,20.01
2023-05-09T16:46:20.839Z,19.93
2023-05-09T16:48:50.172Z,19.84
2023-05-09T16:51:17.742Z,19.78
2023-05-09T16:53:44.949Z,19.69
2023-05-09T16:56:12.150Z,19.57
2023-05-09T16:58:39.251Z,19.49
2023-05-09T17:01:06.616Z,19.38
2023-05-09T17:03:33.760Z,19.26
2023-05-09T17:06:00.757Z,19.12
2023-05-09T17:08:27.835Z,18.95
2023-05-09T17:10:55.403Z,18.90
2023-05-09T17:13:22.836Z,18.85
2023-05-09T17:15:52.133Z,18.78
2023-05-09T17:18:33.240Z,18.74
2023-05-09T17:21:01.104Z,18.68
2023-05-09T17:23:27.943Z,18.58
2023-05-09T17:25:54.874Z,18.45
2023-05-09T17:28:21.928Z,18.34
2023-05-09T17:30:48.693Z,18.25
2023-05-09T17:33:16.076Z,18.17
2023-05-09T17:35:43.533Z,18.06
2023-05-09T17:38:10.360Z,17.95
2023-05-09T17:40:37.633Z,17.83
2023-05-09T17:43:04.480Z,17.72
2023-05-09T17:45:31.707Z,17.63
2023-05-09T17:48:00.811Z,17.50
2023-05-09T17:50:27.996Z,17.40
2023-05-09T17:52:56.847Z,17.30
2023-05-09T17:55:23.828Z,17.20
2023-05-09T17:57:51.353Z,17.11
2023-05-09T18:00:19.097Z,17.09
2023-05-09T18:02:47.427Z,17.05
2023-05-09T18:05:14.223Z,17.00
2023-05-09T18:07:41.216Z,16.92
2023-05-09T18:10:08.923Z,16.85
2023-05-09T18:12:37.305Z,16.78
2023-05-09T18:18:07.465Z,15.72
2023-05-09T18:20:34.830Z,16.60
2023-05-09T18:23:01.897Z,16.50
2023-05-09T18:25:29.380Z,16.39
2023-05-09T18:27:56.864Z,16.27
2023-05-09T18:30:23.834Z,16.14
2023-05-09T18:32:51.355Z,16.04
2023-05-09T18:35:18.474Z,15.96
2023-05-09T18:37:45.577Z,15.91
2023-05-09T18:40:15.813Z,15.86
2023-05-09T18:42:49.890Z,15.77
2023-05-09T18:45:17.301Z,15.67
2023-05-09T18:47:44.573Z,15.60
2023-05-09T18:50:13.868Z,15.53
2023-05-09T18:52:41.140Z,15.46
2023-05-09T18:55:08.746Z,15.44
2023-05-09T18:57:36.114Z,15.37
2023-05-09T19:00:03.773Z,15.28
2023-05-09T19:02:30.875Z,15.22
2023-05-09T19:04:57.951Z,15.21
2023-05-09T19:07:25.025Z,15.19
2023-05-09T19:09:52.573Z,15.17
2023-05-09T19:12:19.558Z,15.14
2023-05-09T19:14:46.738Z,15.13
2023-05-09T19:17:13.919Z,15.12
2023-05-09T19:19:41.070Z,15.12
2023-05-09T19:22:08.321Z,15.14
2023-05-09T19:24:35.373Z,15.14
2023-05-09T19:27:02.578Z,15.10
2023-05-09T19:29:29.824Z,15.07
2023-05-09T19:31:56.826Z,15.07
2023-05-09T19:34:24.115Z,15.07
2023-05-09T19:36:51.487Z,15.08
2023-05-09T19:39:18.721Z,15.07
2023-05-09T19:41:46.484Z,15.04
2023-05-09T19:44:13.740Z,15.04
2023-05-09T19:46:43.153Z,15.00
2023-05-09T19:49:10.655Z,14.99
2023-05-09T19:51:37.871Z,14.94
2023-05-09T19:54:05.271Z,14.93
2023-05-09T19:56:32.321Z,14.90
2023-05-09T19:58:59.651Z,14.89
2023-05-09T20:01:26.717Z,14.90
2023-05-09T20:03:53.973Z,14.91
2023-05-09T20:09:06.791Z,14.94
2023-05-09T20:11:34.022Z,14.93
2023-05-09T20:14:01.309Z,14.94
2023-05-09T20:16:28.676Z,14.92
2023-05-09T20:18:55.807Z,14.89
2023-05-09T20:21:22.934Z,14.88
2023-05-09T20:23:50.138Z,14.90
2023-05-09T20:26:17.202Z,14.93
2023-05-09T20:28:44.255Z,14.94
2023-05-09T20:31:11.877Z,14.96
2023-05-09T20:33:40.209Z,14.97
2023-05-09T20:36:09.590Z,14.97
2023-05-09T20:38:36.587Z,14.94
2023-05-09T20:41:04.278Z,14.92
2023-05-09T20:43:31.460Z,14.88
2023-05-09T20:45:58.768Z,14.86
2023-05-09T20:48:26.093Z,14.84
2023-05-09T20:50:53.049Z,14.84
2023-05-09T20:53:20.293Z,14.80
2023-05-09T20:55:49.554Z,14.76
2023-05-09T20:58:17.620Z,14.74
2023-05-09T21:00:47.229Z,14.74
2023-05-09T21:03:14.548Z,14.74
2023-05-09T21:05:41.640Z,14.69
2023-05-09T21:08:08.718Z,14.68
2023-05-09T21:10:35.970Z,14.65
2023-05-09T21:13:04.534Z,14.67
2023-05-09T21:15:31.558Z,14.66
2023-05-09T21:17:58.854Z,14.64
2023-05-09T21:20:26.418Z,14.65
2023-05-09T21:22:53.701Z,14.65
2023-05-09T21:25:20.952Z,14.66
2023-05-09T21:27:47.924Z,14.65
2023-05-09T21:30:15.000Z,14.63
2023-05-09T21:32:42.207Z,14.63
2023-05-09T21:35:12.800Z,14.60
2023-05-09T21:37:39.965Z,14.57
2023-05-09T21:40:07.986Z,14.53
2023-05-09T21:42:36.141Z,14.55
2023-05-09T21:45:03.909Z,14.59
2023-05-09T21:47:31.445Z,14.56
2023-05-09T21:49:58.641Z,14.46
2023-05-09T21:52:25.594Z,14.41
2023-05-09T21:54:52.667Z,14.38
2023-05-09T21:57:19.638Z,14.38
2023-05-09T21:59:46.714Z,14.35
2023-05-09T22:02:14.587Z,14.32
2023-05-09T22:04:41.633Z,14.30
2023-05-09T22:07:08.712Z,14.25
2023-05-09T22:09:35.690Z,14.16
2023-05-09T22:12:02.839Z,14.12
2023-05-09T22:14:29.779Z,14.07
2023-05-09T22:16:56.704Z,14.01
2023-05-09T22:19:23.704Z,13.93
2023-05-09T22:21:50.856Z,13.89
2023-05-09T22:24:18.186Z,13.86
2023-05-09T22:26:45.192Z,13.80
2023-05-09T22:29:12.258Z,13.77
2023-05-09T22:31:39.370Z,13.76
2023-05-09T22:34:06.384Z,13.72
2023-05-09T22:36:33.646Z,13.68
2023-05-09T22:39:00.705Z,13.67
2023-05-09T22:41:27.714Z,13.67
2023-05-09T22:43:55.045Z,13.64
2023-05-09T22:46:22.842Z,13.60
2023-05-09T22:48:50.040Z,13.61
2023-05-09T22:51:17.070Z,13.58
2023-05-09T22:53:44.217Z,13.56
2023-05-09T22:56:11.706Z,13.54
2023-05-09T22:58:38.676Z,13.50
2023-05-09T23:01:06.236Z,13.44
2023-05-09T23:03:33.302Z,13.41
2023-05-09T23:06:00.294Z,13.40
2023-05-09T23:08:27.365Z,13.39
2023-05-09T23:10:54.322Z,13.37
2023-05-09T23:13:21.599Z,13.36
2023-05-09T23:15:48.710Z,13.38
2023-05-09T23:18:15.940Z,13.38
2023-05-09T23:20:42.999Z,13.36
2023-05-09T23:23:10.334Z,13.33
2023-05-09T23:25:38.971Z,13.31
2023-05-09T23:28:05.868Z,13.34
2023-05-09T23:30:32.887Z,13.37
2023-05-09T23:32:59.895Z,13.39
2023-05-09T23:35:26.968Z,13.40
2023-05-09T23:37:54.126Z,13.43
2023-05-09T23:40:21.430Z,13.45
2023-05-09T23:42:48.496Z,13.43
2023-05-09T23:45:15.497Z,13.47
2023-05-09T23:47:42.743Z,13.46
2023-05-09T23:50:10.809Z,13.47
2023-05-09T23:52:37.792Z,13.49
2023-05-09T23:55:05.462Z,13.53
2023-05-09T23:57:32.612Z,13.50
2023-05-09T23:59:59.811Z,13.50
